createdAt,value
2023-03-24T00:01:10.608Z,4.97
2023-03-24T00:03:38.216Z,4.10
2023-03-24T00:06:06.428Z,5.72
2023-03-24T00:08:36.651Z,4.22
2023-03-24T00:11:11.819Z,6.60
2023-03-24T00:13:39.419Z,3.33
2023-03-24T00:16:10.736Z,4.25
2023-03-24T00:18:39.492Z,6.32
2023-03-24T00:21:07.800Z,5.40
2023-03-24T00:23:35.298Z,6.22
2023-03-24T00:26:15.417Z,4.47
2023-03-24T00:28:48.050Z,3.75
2023-03-24T00:31:16.704Z,3.78
2023-03-24T00:33:48.172Z,4.70
2023-03-24T00:36:18.306Z,7.40
2023-03-24T00:38:47.340Z,5.13
2023-03-24T00:41:20.115Z,3.28
2023-03-24T00:43:48.671Z,7.50
2023-03-24T00:46:27.708Z,4.07
2023-03-24T00:49:12.081Z,5.63
2023-03-24T00:51:41.157Z,4.38
2023-03-24T00:54:10.401Z,2.75
2023-03-24T00:56:40.489Z,3.40
2023-03-24T00:59:10.300Z,4.05
2023-03-24T01:01:39.002Z,5.25
2023-03-24T01:04:06.531Z,3.95
2023-03-24T01:06:36.802Z,4.32
2023-03-24T01:09:05.836Z,2.58
2023-03-24T01:11:38.685Z,4.47
2023-03-24T01:14:07.745Z,3.30
2023-03-24T01:16:34.759Z,3.67
2023-03-24T01:19:04.801Z,3.17
2023-03-24T01:21:32.309Z,3.83
2023-03-24T01:23:58.941Z,8.07
2023-03-24T01:26:25.692Z,5.70
2023-03-24T01:28:52.347Z,4.28
2023-03-24T01:31:21.598Z,3.40
2023-03-24T01:33:48.516Z,4.03
2023-03-24T01:36:15.703Z,3.45
2023-03-24T01:38:42.830Z,4.43
2023-03-24T01:41:09.543Z,4.15
2023-03-24T01:43:36.392Z,3.83
2023-03-24T01:46:21.803Z,3.10
2023-03-24T01:48:55.034Z,4.15
2023-03-24T01:51:40.372Z,3.08
2023-03-24T01:54:22.112Z,2.08
2023-03-24T01:56:57.144Z,3.30
2023-03-24T01:59:28.257Z,3.47
2023-03-24T02:02:03.249Z,3.60
2023-03-24T02:04:46.230Z,4.93
2023-03-24T02:07:25.648Z,6.65
2023-03-24T02:09:58.030Z,3.65
2023-03-24T02:12:24.997Z,3.88
2023-03-24T02:14:52.264Z,2.88
2023-03-24T02:17:25.616Z,3.92
2023-03-24T02:20:17.176Z,4.90
2023-03-24T02:23:10.190Z,4.32
2023-03-24T02:25:50.929Z,3.42
2023-03-24T02:28:40.488Z,4.28
2023-03-24T02:31:34.408Z,3.70
2023-03-24T02:34:21.066Z,3.08
2023-03-24T02:36:59.822Z,3.63
2023-03-24T02:39:38.042Z,3.80
2023-03-24T02:42:25.780Z,3.58
2023-03-24T02:45:30.081Z,4.18
2023-03-24T02:48:09.973Z,4.68
2023-03-24T02:50:41.341Z,2.88
2023-03-24T02:53:39.021Z,2.58
2023-03-24T02:56:10.815Z,4.18
2023-03-24T02:58:53.334Z,3.35
2023-03-24T03:01:31.862Z,4.80
2023-03-24T03:04:10.072Z,2.58
2023-03-24T03:06:40.466Z,2.33
2023-03-24T03:09:11.616Z,4.13
2023-03-24T03:11:40.853Z,4.97
2023-03-24T03:14:15.845Z,3.13
2023-03-24T03:16:48.690Z,5.25
2023-03-24T03:19:34.724Z,2.53
2023-03-24T03:22:06.403Z,2.58
2023-03-24T03:24:40.064Z,3.45
2023-03-24T03:27:32.234Z,3.67
2023-03-24T03:30:08.364Z,3.35
2023-03-24T03:32:43.214Z,4.25
2023-03-24T03:35:19.906Z,6.03
2023-03-24T03:38:03.567Z,3.78
2023-03-24T03:40:40.062Z,4.57
2023-03-24T03:43:07.064Z,7.90
2023-03-24T03:45:36.691Z,3.35
2023-03-24T03:48:06.091Z,3.30
2023-03-24T03:50:35.475Z,4.60
2023-03-24T03:53:02.473Z,6.78
2023-03-24T03:55:29.257Z,4.03
2023-03-24T03:57:56.081Z,6.40
2023-03-24T04:00:25.934Z,6.38
2023-03-24T04:02:55.678Z,7.57
2023-03-24T04:05:38.616Z,5.47
2023-03-24T04:08:14.563Z,7.68
2023-03-24T04:11:12.825Z,5.30
2023-03-24T04:14:20.775Z,7.07
2023-03-24T04:17:08.064Z,6.40
2023-03-24T04:19:41.111Z,12.68
2023-03-24T04:22:16.824Z,5.65
2023-03-24T04:25:00.188Z,9.15
2023-03-24T04:27:38.432Z,9.55
2023-03-24T04:30:31.090Z,8.68
2023-03-24T04:33:05.770Z,6.30
2023-03-24T04:35:41.052Z,12.45
2023-03-24T04:38:14.900Z,11.63
2023-03-24T04:40:44.254Z,8.40
2023-03-24T04:43:18.386Z,12.38
2023-03-24T04:45:50.286Z,11.25
2023-03-24T04:48:18.939Z,9.13
2023-03-24T04:50:58.395Z,11.45
2023-03-24T04:53:25.883Z,11.40
2023-03-24T04:56:27.366Z,12.55
2023-03-24T04:58:54.245Z,12.25
2023-03-24T05:01:21.627Z,10.27
2023-03-24T05:03:49.135Z,9.15
2023-03-24T05:06:17.021Z,15.13
2023-03-24T05:08:43.854Z,16.00
2023-03-24T05:11:10.750Z,8.18
2023-03-24T05:13:37.596Z,9.32
2023-03-24T05:16:04.746Z,11.43
2023-03-24T05:18:31.581Z,9.27
2023-03-24T05:20:58.513Z,8.45
2023-03-24T05:23:25.191Z,13.45
2023-03-24T05:25:51.819Z,16.70
2023-03-24T05:28:20.788Z,8.10
2023-03-24T05:30:47.970Z,10.95
2023-03-24T05:33:14.712Z,10.77
2023-03-24T05:35:41.635Z,8.50
2023-03-24T05:38:08.376Z,12.60
2023-03-24T05:40:38.733Z,8.70
2023-03-24T05:43:06.130Z,12.10
2023-03-24T05:45:32.768Z,10.45
2023-03-24T05:47:59.401Z,9.63
2023-03-24T05:50:28.639Z,15.52
2023-03-24T05:52:55.469Z,10.90
2023-03-24T05:55:22.194Z,13.25
2023-03-24T05:57:49.006Z,11.07
2023-03-24T06:00:19.023Z,9.88
2023-03-24T06:02:46.904Z,11.43
2023-03-24T06:05:13.747Z,13.15
2023-03-24T06:07:42.794Z,9.77
2023-03-24T06:10:11.781Z,11.82
2023-03-24T06:12:39.269Z,12.15
2023-03-24T06:15:07.521Z,12.07
2023-03-24T06:17:37.648Z,16.90
2023-03-24T06:20:06.418Z,11.43
2023-03-24T06:22:36.459Z,12.65
2023-03-24T06:25:05.183Z,17.05
2023-03-24T06:27:35.909Z,8.18
2023-03-24T06:30:04.148Z,15.85
2023-03-24T06:32:31.808Z,11.68
2023-03-24T06:34:58.398Z,11.48
2023-03-24T06:37:25.060Z,8.77
2023-03-24T06:39:52.279Z,16.30
2023-03-24T06:42:21.392Z,13.10
2023-03-24T06:44:48.961Z,12.25
2023-03-24T06:47:16.037Z,13.02
2023-03-24T06:49:42.630Z,10.05
2023-03-24T06:52:09.279Z,10.68
2023-03-24T06:54:36.166Z,9.35
2023-03-24T06:57:02.981Z,12.32
2023-03-24T06:59:31.559Z,8.57
2023-03-24T07:02:03.390Z,6.95
2023-03-24T07:04:36.634Z,9.60
2023-03-24T07:07:19.603Z,7.47
2023-03-24T07:09:52.502Z,11.32
2023-03-24T07:12:23.366Z,13.07
2023-03-24T07:14:50.024Z,10.93
2023-03-24T07:17:17.139Z,10.63
2023-03-24T07:19:46.247Z,12.77
2023-03-24T07:22:15.587Z,19.10
2023-03-24T07:24:44.475Z,9.98
2023-03-24T07:27:11.221Z,11.68
2023-03-24T07:29:39.942Z,10.02
2023-03-24T07:32:08.176Z,12.68
2023-03-24T07:34:39.403Z,13.77
2023-03-24T07:37:06.503Z,13.82
2023-03-24T07:39:33.271Z,13.93
2023-03-24T07:41:59.908Z,19.80
2023-03-24T07:44:29.176Z,14.60
2023-03-24T07:46:55.873Z,15.27
2023-03-24T07:49:22.686Z,11.40
2023-03-24T07:51:49.427Z,16.30
2023-03-24T07:54:16.142Z,10.45
2023-03-24T07:56:42.831Z,8.02
2023-03-24T07:59:12.054Z,10.05
2023-03-24T08:01:38.897Z,11.38
2023-03-24T08:04:07.015Z,12.80
2023-03-24T08:06:38.511Z,16.13
2023-03-24T08:09:05.430Z,12.95
2023-03-24T08:11:32.112Z,11.45
2023-03-24T08:14:01.197Z,16.65
2023-03-24T08:16:27.929Z,11.10
2023-03-24T08:18:58.106Z,12.50
2023-03-24T08:21:26.321Z,13.55
2023-03-24T08:23:53.173Z,10.23
2023-03-24T08:26:22.689Z,10.63
2023-03-24T08:28:51.665Z,12.48
2023-03-24T08:31:18.432Z,11.38
2023-03-24T08:33:45.170Z,13.35
2023-03-24T08:36:11.886Z,14.20
2023-03-24T08:38:39.014Z,13.80
2023-03-24T08:41:08.994Z,12.60
2023-03-24T08:43:37.978Z,17.52
2023-03-24T08:46:08.419Z,14.05
2023-03-24T08:48:38.072Z,10.70
2023-03-24T08:51:16.492Z,8.77
2023-03-24T08:53:45.928Z,7.93
2023-03-24T08:56:14.960Z,11.52
2023-03-24T08:58:43.729Z,8.85
2023-03-24T09:01:10.442Z,14.23
2023-03-24T09:03:41.829Z,11.18
2023-03-24T09:06:08.784Z,12.13
2023-03-24T09:08:37.845Z,11.20
2023-03-24T09:11:05.980Z,19.90
2023-03-24T09:13:32.654Z,8.93
2023-03-24T09:16:01.983Z,8.77
2023-03-24T09:18:29.016Z,14.07
2023-03-24T09:20:56.048Z,9.93
2023-03-24T09:23:22.881Z,12.98
2023-03-24T09:25:51.493Z,9.73
2023-03-24T09:28:21.253Z,7.75
2023-03-24T09:30:48.524Z,11.02
2023-03-24T09:33:15.718Z,10.63
2023-03-24T09:35:43.290Z,12.35
2023-03-24T09:38:12.643Z,12.15
2023-03-24T09:40:40.814Z,11.23
2023-03-24T09:43:33.811Z,8.77
2023-03-24T09:46:04.685Z,17.83
2023-03-24T09:48:46.143Z,11.52
2023-03-24T09:51:26.336Z,8.30
2023-03-24T09:53:57.719Z,10.10
2023-03-24T09:56:26.630Z,11.50
2023-03-24T09:59:07.704Z,11.63
2023-03-24T10:01:36.422Z,10.27
2023-03-24T10:04:07.771Z,10.32
2023-03-24T10:06:43.901Z,8.98
2023-03-24T10:09:29.743Z,8.70
2023-03-24T10:12:01.249Z,10.82
2023-03-24T10:14:40.734Z,7.28
2023-03-24T10:17:26.221Z,7.00
2023-03-24T10:20:12.039Z,5.50
2023-03-24T10:23:13.764Z,6.30
2023-03-24T10:25:46.159Z,12.25
2023-03-24T10:28:23.014Z,10.05
2023-03-24T10:30:53.695Z,9.35
2023-03-24T10:33:20.976Z,10.32
2023-03-24T10:36:09.626Z,7.15
2023-03-24T10:38:36.681Z,26.67
2023-03-24T10:41:06.781Z,8.68
2023-03-24T10:43:33.808Z,10.05
2023-03-24T10:46:03.337Z,8.00
2023-03-24T10:48:56.398Z,10.07
2023-03-24T10:51:31.679Z,8.20
2023-03-24T10:54:11.218Z,11.20
2023-03-24T10:56:48.644Z,12.55
2023-03-24T10:59:32.222Z,9.13
2023-03-24T11:02:11.421Z,12.60
2023-03-24T11:04:40.857Z,11.88
2023-03-24T11:07:29.853Z,10.15
2023-03-24T11:10:27.810Z,13.40
2023-03-24T11:12:54.676Z,12.27
2023-03-24T11:15:22.943Z,11.13
2023-03-24T11:17:57.724Z,12.63
2023-03-24T11:20:33.521Z,13.13
2023-03-24T11:23:02.724Z,9.93
2023-03-24T11:25:34.186Z,8.50
2023-03-24T11:28:08.969Z,11.95
2023-03-24T11:30:53.907Z,8.32
2023-03-24T11:33:35.600Z,10.32
2023-03-24T11:36:31.007Z,10.52
2023-03-24T11:39:06.752Z,7.80
2023-03-24T11:41:37.062Z,12.60
2023-03-24T11:44:27.136Z,11.00
2023-03-24T11:46:58.947Z,14.38
2023-03-24T11:49:36.494Z,11.65
2023-03-24T11:52:09.726Z,13.70
2023-03-24T11:54:37.209Z,20.80
2023-03-24T11:57:09.560Z,8.90
2023-03-24T11:59:52.379Z,12.63
2023-03-24T12:02:42.359Z,6.65
2023-03-24T12:05:30.535Z,4.72
2023-03-24T12:08:22.223Z,5.30
2023-03-24T12:11:11.727Z,7.25
2023-03-24T12:13:51.690Z,6.70
2023-03-24T12:16:33.765Z,8.85
2023-03-24T12:19:28.231Z,9.13
2023-03-24T12:22:15.993Z,10.15
2023-03-24T12:24:57.952Z,8.30
2023-03-24T12:27:50.092Z,6.38
2023-03-24T12:30:44.067Z,5.88
2023-03-24T12:33:28.949Z,4.57
2023-03-24T12:36:04.402Z,6.45
2023-03-24T12:38:51.423Z,9.52
2023-03-24T12:41:49.291Z,5.38
2023-03-24T12:44:46.831Z,7.00
2023-03-24T12:47:16.580Z,6.13
2023-03-24T12:49:48.986Z,8.02
2023-03-24T12:52:43.874Z,4.55
2023-03-24T12:55:18.474Z,9.40
2023-03-24T12:57:57.091Z,6.65
2023-03-24T13:00:37.336Z,5.82
2023-03-24T13:03:13.514Z,5.68
2023-03-24T13:06:16.900Z,6.10
2023-03-24T13:08:52.964Z,2.35
2023-03-24T13:11:32.656Z,7.20
2023-03-24T13:14:03.335Z,7.97
2023-03-24T13:16:35.592Z,6.05
2023-03-24T13:19:11.767Z,4.47
2023-03-24T13:21:38.396Z,4.68
2023-03-24T13:24:12.295Z,7.10
2023-03-24T13:26:51.384Z,5.28
2023-03-24T13:29:38.392Z,4.35
2023-03-24T13:32:14.466Z,8.57
2023-03-24T13:34:49.212Z,6.57
2023-03-24T13:37:24.786Z,5.25
2023-03-24T13:40:06.870Z,8.95
2023-03-24T13:42:37.777Z,9.38
2023-03-24T13:45:09.532Z,8.68
2023-03-24T13:48:07.018Z,7.20
2023-03-24T13:50:37.738Z,4.55
2023-03-24T13:53:16.686Z,9.70
2023-03-24T13:55:52.766Z,6.18
2023-03-24T13:58:24.601Z,6.55
2023-03-24T14:01:06.981Z,3.75
2023-03-24T14:03:40.714Z,4.13
2023-03-24T14:06:15.429Z,4.00
2023-03-24T14:08:42.056Z,7.32
2023-03-24T14:11:38.525Z,7.55
2023-03-24T14:14:06.566Z,1.55
2023-03-24T14:16:50.070Z,2.20
2023-03-24T14:19:17.713Z,1.38
2023-03-24T14:21:45.428Z,2.85
2023-03-24T14:24:28.519Z,3.30
2023-03-24T14:26:56.218Z,3.55
2023-03-24T14:29:38.116Z,1.92
2023-03-24T14:32:19.288Z,2.15
2023-03-24T14:35:02.943Z,3.10
2023-03-24T14:37:32.756Z,3.65
2023-03-24T14:39:59.568Z,2.17
2023-03-24T14:42:32.166Z,2.97
2023-03-24T14:45:00.412Z,3.33
2023-03-24T14:47:33.352Z,3.63
2023-03-24T14:50:04.158Z,3.63
2023-03-24T14:52:50.060Z,5.78
2023-03-24T14:55:19.649Z,7.05
2023-03-24T14:57:52.291Z,3.38
2023-03-24T15:00:36.046Z,4.25
2023-03-24T15:03:18.084Z,2.50
2023-03-24T15:05:49.666Z,4.90
2023-03-24T15:08:26.774Z,3.25
2023-03-24T15:10:58.045Z,2.67
2023-03-24T15:13:35.874Z,2.88
2023-03-24T15:16:07.919Z,5.57
2023-03-24T15:18:44.275Z,5.43
2023-03-24T15:21:34.309Z,5.18
2023-03-24T15:24:02.232Z,3.67
2023-03-24T15:26:32.293Z,4.18
2023-03-24T15:29:06.302Z,5.75
2023-03-24T15:31:33.471Z,10.55
2023-03-24T15:34:42.601Z,12.68
2023-03-24T15:37:30.398Z,8.13
2023-03-24T15:40:05.188Z,6.53
2023-03-24T15:42:41.901Z,9.60
2023-03-24T15:45:19.629Z,6.07
2023-03-24T15:47:46.396Z,5.68
2023-03-24T15:50:31.837Z,5.68
2023-03-24T15:53:00.422Z,8.55
2023-03-24T15:55:37.466Z,8.82
2023-03-24T15:58:24.658Z,10.90
2023-03-24T16:00:57.514Z,5.35
2023-03-24T16:03:27.410Z,8.30
2023-03-24T16:05:56.212Z,6.75
2023-03-24T16:08:32.041Z,4.03
2023-03-24T16:11:11.031Z,4.53
2023-03-24T16:13:43.455Z,6.45
2023-03-24T16:16:17.259Z,4.90
2023-03-24T16:18:48.851Z,6.18
2023-03-24T16:21:29.618Z,6.68
2023-03-24T16:23:57.926Z,5.72
2023-03-24T16:26:34.712Z,6.28
2023-03-24T16:29:13.641Z,3.83
2023-03-24T16:31:40.250Z,4.53
2023-03-24T16:34:09.407Z,10.38
2023-03-24T16:36:36.287Z,10.48
2023-03-24T16:39:03.764Z,2.53
2023-03-24T16:41:30.469Z,4.93
2023-03-24T16:43:59.294Z,7.18
2023-03-24T16:46:25.957Z,8.73
2023-03-24T16:48:53.373Z,3.15
2023-03-24T16:51:20.019Z,4.97
2023-03-24T16:53:47.302Z,5.53
2023-03-24T16:56:19.128Z,5.55
2023-03-24T16:58:48.137Z,6.20
2023-03-24T17:01:38.409Z,4.72
2023-03-24T17:04:11.034Z,3.95
2023-03-24T17:06:41.110Z,6.82
2023-03-24T17:09:08.719Z,6.82
2023-03-24T17:11:41.261Z,9.70
2023-03-24T17:14:12.253Z,2.63
2023-03-24T17:16:44.175Z,4.72
2023-03-24T17:19:13.116Z,5.78
2023-03-24T17:22:04.116Z,7.05
2023-03-24T17:24:41.815Z,5.65
2023-03-24T17:27:21.481Z,6.35
2023-03-24T17:29:48.185Z,5.30
2023-03-24T17:32:15.100Z,3.03
2023-03-24T17:34:48.174Z,4.78
2023-03-24T17:37:17.123Z,6.57
2023-03-24T17:39:47.313Z,3.22
2023-03-24T17:42:16.435Z,8.93
2023-03-24T17:44:45.430Z,6.80
2023-03-24T17:47:12.044Z,6.35
2023-03-24T17:49:38.749Z,6.22
2023-03-24T17:52:05.404Z,4.80
2023-03-24T17:54:32.059Z,3.35
2023-03-24T17:56:59.086Z,6.70
2023-03-24T17:59:25.955Z,6.63
2023-03-24T18:01:52.595Z,6.10
2023-03-24T18:04:20.754Z,5.57
2023-03-24T18:06:47.853Z,8.13
2023-03-24T18:09:15.079Z,7.28
2023-03-24T18:11:41.681Z,4.97
2023-03-24T18:14:09.394Z,5.60
2023-03-24T18:16:37.171Z,5.82
2023-03-24T18:19:04.218Z,7.07
2023-03-24T18:21:32.316Z,9.65
2023-03-24T18:23:59.036Z,4.30
2023-03-24T18:26:26.104Z,3.42
2023-03-24T18:28:57.534Z,9.75
2023-03-24T18:31:26.459Z,5.50
2023-03-24T18:33:54.490Z,2.17
2023-03-24T18:36:26.604Z,3.72
2023-03-24T18:38:59.346Z,2.83
2023-03-24T18:41:28.097Z,5.43
2023-03-24T18:43:56.315Z,4.65
2023-03-24T18:46:23.435Z,3.00
2023-03-24T18:48:53.209Z,2.63
2023-03-24T18:51:21.244Z,7.80
2023-03-24T18:53:51.669Z,4.30
2023-03-24T18:56:19.481Z,10.00
2023-03-24T18:58:46.276Z,6.93
2023-03-24T19:01:15.728Z,4.60
2023-03-24T19:03:44.996Z,6.43
2023-03-24T19:06:14.920Z,5.30
2023-03-24T19:08:46.280Z,4.40
2023-03-24T19:11:16.604Z,6.15
2023-03-24T19:13:46.258Z,3.78
2023-03-24T19:16:15.683Z,5.97
2023-03-24T19:18:42.885Z,7.75
2023-03-24T19:21:10.280Z,3.00
2023-03-24T19:23:37.019Z,5.43
2023-03-24T19:26:03.856Z,5.68
2023-03-24T19:28:33.056Z,2.72
2023-03-24T19:31:07.083Z,4.50
2023-03-24T19:33:37.401Z,7.65
2023-03-24T19:36:09.056Z,7.95
2023-03-24T19:38:37.635Z,3.88
2023-03-24T19:41:09.591Z,6.45
2023-03-24T19:43:36.958Z,5.03
2023-03-24T19:46:05.831Z,5.10
2023-03-24T19:48:33.656Z,6.20
2023-03-24T19:51:02.907Z,4.82
2023-03-24T19:53:30.037Z,3.53
2023-03-24T19:55:58.247Z,3.95
2023-03-24T19:58:25.521Z,2.00
2023-03-24T20:00:53.110Z,3.65
2023-03-24T20:03:22.292Z,5.05
2023-03-24T20:05:49.722Z,6.75
2023-03-24T20:08:19.172Z,3.95
2023-03-24T20:10:46.247Z,3.95
2023-03-24T20:13:17.632Z,2.70
2023-03-24T20:15:46.325Z,3.58
2023-03-24T20:18:13.550Z,4.43
2023-03-24T20:20:40.194Z,3.75
2023-03-24T20:23:10.038Z,1.85
2023-03-24T20:25:36.809Z,3.67
2023-03-24T20:28:03.437Z,8.50
2023-03-24T20:30:31.319Z,3.17
2023-03-24T20:32:58.547Z,5.20
2023-03-24T20:35:28.224Z,4.38
2023-03-24T20:37:57.724Z,3.63
2023-03-24T20:40:25.756Z,4.05
2023-03-24T20:42:52.961Z,4.45
2023-03-24T20:45:20.054Z,2.58
2023-03-24T20:47:47.249Z,5.35
2023-03-24T20:50:13.905Z,7.00
2023-03-24T20:52:41.480Z,2.85
2023-03-24T20:55:10.118Z,4.07
2023-03-24T20:57:38.234Z,5.95
2023-03-24T21:00:13.690Z,7.18
2023-03-24T21:02:43.833Z,7.07
2023-03-24T21:05:10.937Z,5.50
2023-03-24T21:07:40.282Z,3.00
2023-03-24T21:10:10.521Z,3.47
2023-03-24T21:12:53.928Z,1.85
2023-03-24T21:15:25.232Z,3.63
2023-03-24T21:17:52.925Z,3.50
2023-03-24T21:20:21.132Z,3.00
2023-03-24T21:22:57.126Z,3.70
2023-03-24T21:25:30.042Z,6.18
2023-03-24T21:27:57.834Z,3.53
2023-03-24T21:30:26.904Z,3.25
2023-03-24T21:32:56.135Z,3.75
2023-03-24T21:35:25.372Z,4.70
2023-03-24T21:37:53.707Z,4.00
2023-03-24T21:40:25.691Z,7.82
2023-03-24T21:42:54.259Z,4.78
2023-03-24T21:45:23.784Z,4.05
2023-03-24T21:47:55.381Z,3.72
2023-03-24T21:50:25.854Z,6.28
2023-03-24T21:52:54.314Z,4.15
2023-03-24T21:55:27.138Z,3.83
2023-03-24T21:57:56.929Z,3.85
2023-03-24T22:00:29.867Z,3.78
2023-03-24T22:03:01.732Z,2.05
2023-03-24T22:05:32.994Z,1.67
2023-03-24T22:08:08.177Z,7.68
2023-03-24T22:10:42.822Z,4.28
2023-03-24T22:13:10.637Z,2.95
2023-03-24T22:15:38.338Z,4.60
2023-03-24T22:18:05.369Z,3.67
2023-03-24T22:20:33.750Z,6.63
2023-03-24T22:23:03.536Z,4.30
2023-03-24T22:25:30.838Z,4.60
2023-03-24T22:27:57.674Z,4.72
2023-03-24T22:30:26.996Z,4.72
2023-03-24T22:32:53.838Z,2.65
2023-03-24T22:35:21.494Z,5.28
2023-03-24T22:37:48.394Z,5.95
2023-03-24T22:40:15.186Z,3.45
2023-03-24T22:42:42.403Z,12.25
2023-03-24T22:45:09.834Z,4.55
2023-03-24T22:47:36.750Z,4.07
2023-03-24T22:50:04.273Z,5.13
2023-03-24T22:52:31.464Z,6.65
2023-03-24T22:54:58.263Z,4.50
2023-03-24T22:57:25.224Z,5.93
2023-03-24T22:59:54.150Z,3.28
2023-03-24T23:02:24.640Z,5.03
2023-03-24T23:04:51.543Z,2.25
2023-03-24T23:07:22.371Z,2.72
2023-03-24T23:09:53.749Z,2.60
2023-03-24T23:12:21.900Z,5.35
2023-03-24T23:14:48.534Z,9.82
2023-03-24T23:17:17.749Z,5.75
2023-03-24T23:19:44.524Z,3.97
2023-03-24T23:22:11.302Z,4.57
2023-03-24T23:24:40.475Z,5.13
2023-03-24T23:27:07.845Z,8.82
2023-03-24T23:29:34.735Z,5.72
2023-03-24T23:32:01.910Z,4.00
2023-03-24T23:34:28.883Z,4.20
2023-03-24T23:36:55.614Z,5.45
2023-03-24T23:39:22.363Z,10.02
2023-03-24T23:41:51.249Z,5.85
2023-03-24T23:44:19.880Z,8.35
2023-03-24T23:46:46.687Z,5.85
2023-03-24T23:49:13.363Z,5.28
2023-03-24T23:51:40.414Z,4.45
2023-03-24T23:54:07.517Z,5.97
2023-03-24T23:56:37.442Z,6.90
2023-03-24T23:59:06.616Z,6.63
